Time;durP1;ratioP1;P1;durP2;ratioP2;P2;SDS_P1;SDS_P2;PMS_P1;PMS_P2;Temp;Humidity;BMP_temperature;BMP_pressure;BME280_temperature;BME280_humidity;BME280_pressure;Samples;Min_cycle;Max_cycle;Signal;HPM_P1;HPM_P2
2023/04/18 11:43:04;;;;;;;1.55;1.45;;;;;;;;;;5669884;23;20126;-83
2023/04/18 11:45:30;;;;;;;1.50;1.40;;;;;;;;;;4937706;29;20067;-84
2023/04/18 17:11:39;;;;;;;4.38;3.85;;;;;;;;;;5141630;23;20055;-84
2023/04/18 17:14:06;;;;;;;3.63;3.33;;;;;;;;;;4935926;29;20411;-84
2023/04/18 17:16:32;;;;;;;5.07;3.90;;;;;;;;;;4936387;29;20489;-83
2023/04/18 17:18:57;;;;;;;3.85;3.50;;;;;;;;;;4936369;29;20031;-83
2023/04/18 17:21:22;;;;;;;3.40;3.10;;;;;;;;;;4936174;29;20070;-84
2023/04/18 17:23:48;;;;;;;4.03;3.20;;;;;;;;;;4936393;29;20107;-83
2023/04/18 17:26:13;;;;;;;3.88;3.35;;;;;;;;;;4936241;29;20408;-81
2023/04/18 17:28:39;;;;;;;3.47;3.13;;;;;;;;;;4936337;29;20028;-82
2023/04/18 17:31:04;;;;;;;3.72;3.42;;;;;;;;;;4936241;29;20020;-82
2023/04/18 17:33:30;;;;;;;4.13;3.50;;;;;;;;;;4936440;29;20067;-83
2023/04/18 17:35:56;;;;;;;3.55;3.25;;;;;;;;;;4936416;29;20036;-82
2023/04/18 17:38:22;;;;;;;5.03;3.85;;;;;;;;;;4936137;29;20050;-83
2023/04/18 17:40:47;;;;;;;4.75;3.42;;;;;;;;;;4936250;29;20024;-83
2023/04/18 17:43:13;;;;;;;6.03;3.72;;;;;;;;;;4936353;29;20028;-82
2023/04/18 17:45:38;;;;;;;4.28;3.88;;;;;;;;;;4936180;29;20035;-82
2023/04/18 17:48:04;;;;;;;4.68;3.83;;;;;;;;;;4936051;29;20059;-80
2023/04/18 17:50:30;;;;;;;5.38;3.85;;;;;;;;;;4936894;29;20367;-81
2023/04/18 17:52:56;;;;;;;4.10;3.75;;;;;;;;;;4936004;29;20032;-80
2023/04/18 17:55:22;;;;;;;3.88;3.58;;;;;;;;;;4936131;29;20059;-81
2023/04/18 17:57:47;;;;;;;4.40;4.00;;;;;;;;;;4935968;29;20027;-81
2023/04/18 18:00:13;;;;;;;5.68;3.80;;;;;;;;;;4936048;29;20024;-81
2023/04/18 18:02:41;;;;;;;4.18;3.58;;;;;;;;;;4935621;29;20031;-81
2023/04/18 18:05:11;;;;;;;4.20;3.80;;;;;;;;;;4936000;29;20383;-81
2023/04/18 18:07:37;;;;;;;5.18;4.68;;;;;;;;;;4935732;29;20376;-81
2023/04/18 18:10:03;;;;;;;6.07;4.57;;;;;;;;;;4941787;29;20087;-83
2023/04/18 18:12:29;;;;;;;4.30;3.90;;;;;;;;;;4954824;29;20051;-83
2023/04/18 18:14:56;;;;;;;4.22;3.83;;;;;;;;;;4957222;28;20074;-83
2023/04/18 18:17:22;;;;;;;4.55;4.07;;;;;;;;;;4958535;29;20031;-82
2023/04/18 18:19:47;;;;;;;5.13;4.57;;;;;;;;;;4958425;28;20055;-83
2023/04/18 18:22:13;;;;;;;8.75;7.95;;;;;;;;;;4958936;29;20390;-83
2023/04/18 18:24:38;;;;;;;8.05;7.35;;;;;;;;;;4958672;29;20030;-83
2023/04/18 18:27:04;;;;;;;4.85;4.35;;;;;;;;;;4958448;29;20402;-83
2023/04/18 18:29:30;;;;;;;4.50;4.10;;;;;;;;;;4958350;28;20433;-82
2023/04/18 18:31:55;;;;;;;4.75;4.15;;;;;;;;;;4958388;29;20098;-82
2023/04/18 18:34:21;;;;;;;4.18;3.78;;;;;;;;;;4958348;29;20426;-83
2023/04/18 18:36:46;;;;;;;5.10;4.60;;;;;;;;;;4958291;29;20063;-80
2023/04/18 18:39:13;;;;;;;5.53;4.75;;;;;;;;;;4958204;28;20017;-82
2023/04/18 18:41:39;;;;;;;4.70;3.95;;;;;;;;;;4958203;29;20027;-82
2023/04/18 18:44:05;;;;;;;6.57;4.47;;;;;;;;;;4958249;29;20023;-82
2023/04/18 18:46:31;;;;;;;5.85;4.10;;;;;;;;;;4958225;29;20058;-82
2023/04/18 18:48:56;;;;;;;3.88;3.47;;;;;;;;;;4950588;29;20063;-83
2023/04/18 18:51:22;;;;;;;4.50;4.10;;;;;;;;;;4921556;29;20055;-82
2023/04/18 18:53:48;;;;;;;5.10;4.60;;;;;;;;;;4938898;29;20489;-82
2023/04/18 18:56:14;;;;;;;5.00;4.25;;;;;;;;;;4939024;29;20039;-81
2023/04/18 18:58:39;;;;;;;6.18;5.13;;;;;;;;;;4938808;29;20110;-82
2023/04/18 19:01:05;;;;;;;4.63;4.00;;;;;;;;;;4938534;29;20035;-81
2023/04/18 19:03:31;;;;;;;6.05;4.45;;;;;;;;;;4938789;29;20036;-82
2023/04/18 19:05:56;;;;;;;6.30;4.60;;;;;;;;;;4938477;29;20386;-82
2023/04/18 19:08:22;;;;;;;5.97;4.78;;;;;;;;;;4938706;29;20024;-81
2023/04/18 19:10:47;;;;;;;5.10;4.55;;;;;;;;;;4938474;29;20042;-82
2023/04/18 19:13:13;;;;;;;5.20;4.70;;;;;;;;;;4938466;29;20055;-82
2023/04/18 19:15:38;;;;;;;17.50;11.57;;;;;;;;;;4938691;29;20442;-81
